Huvudsida
METAR-TAF:

METAR-TAF

Flygplatser :

Sigonella flygbas

Sigonella, Italien

latitud: 37-24N, longitud: 014-55E, höjd: 22 m

Aktuellt väderrapport

Denna rapport gjordes för 1 timme och 16 minuter sedan, klockan 17:55 UTC
Vind 11 kt från väst
Temperatur 14°C
Fuktighet 72%
Tryck 1017 hPa
Sikt 10 km eller mer
Få moln på en höjd av 2000 ft

METAR: LICZ 281755Z 26011KT 9999 FEW020 14/09 Q1017 RMK FEW VIS MIN 9999 WIND THR28 26007KT WIND THR10 26011KT A3004 BLU

Tid: 20:11 (19:11 UTC)

Väderprognos

Denna rapport gjordes för 2 timmar och 11 minuter sedan, klockan 17:00 UTC
Prognos gäller från 28 kl. 18 UTC till 29 kl. 18 UTC
Vind 15 kt från väst
Sikt 10 km eller mer
Spridda moln på en höjd av 2000 ft
Temporärt
från 28 kl. 18 UTC till 29 kl. 00 UTC
Vind 15 kt från väst i byarna ända upp till 25 kt
Blir
från 29 kl. 00 UTC till 29 kl. 02 UTC
Vind 8 kt från väst

TAF: LICZ 281700Z 2818/2918 28015KT 9999 SCT020 TEMPO 2818/2900 28015G25KT BECMG 2900/2902 28008KT

Aktuella väderrapporter och prognoser från 4000 flygplatser (METAR- och TAF-rapporter).

De tillgängliga stationerna syns som gula och röda prickar på kartan.

För musen över prickarna för att se namnen på stationerna.

Klicka sedan för att få väderrapporter och prognoser.

För att ändra kartan: Klicka på de gröna knapparna med ett svart kors på för att zooma in; den gröna knappen med ett streck på för att zooma ut; eller på de gröna pilarna för angränsande kartor.


METAR-TAF: